DLH8VM EDDF-EDDS
Flight info
| Callsign | DLH8VM |
|---|---|
| Flight time | 0h 25m |
| Altitude | 21000 |
| Route | ANEKI2L/18 ANEKI Y163 NEKLO Y171 INKAM N850 KRH T128 BADSO BADSO2A |
| Aircraft | A319/M-SDE3FGHIRWY/LB1 |
Departure
| Time | 2026-04-14 16:09 |
|---|---|
| Airport | Frankfurt Main Airport (EDDF) |
Arrival
| Time | 2026-04-14 16:34 |
|---|---|
| Airport | Stuttgart Airport (EDDS) |
| Time | Latitude | Longitude | Altitude | Speed | Heading |
|---|---|---|---|---|---|
| 2026-04-14 15:04 | 50.05005 | 8.57430 | 363 ft | 0 kts | 74° |
| 2026-04-14 15:55 | 50.05004 | 8.57431 | 356 ft | 0 kts | 79° |
| 2026-04-14 15:55 | 50.05002 | 8.57440 | 363 ft | 3 kts | 110° |
| 2026-04-14 15:55 | 50.04970 | 8.57458 | 356 ft | 6 kts | 158° |
| 2026-04-14 15:55 | 50.04936 | 8.57526 | 360 ft | 11 kts | 115° |
| 2026-04-14 15:56 | 50.04896 | 8.57661 | 359 ft | 16 kts | 114° |
| 2026-04-14 15:56 | 50.04851 | 8.57821 | 361 ft | 16 kts | 113° |
| 2026-04-14 15:56 | 50.04779 | 8.57921 | 358 ft | 0 kts | 159° |
| 2026-04-14 15:57 | 50.04777 | 8.57922 | 358 ft | 1 kts | 159° |
| 2026-04-14 15:57 | 50.04745 | 8.57940 | 362 ft | 9 kts | 161° |
| 2026-04-14 15:57 | 50.04679 | 8.57976 | 360 ft | 10 kts | 160° |
| 2026-04-14 15:57 | 50.04611 | 8.58015 | 362 ft | 10 kts | 160° |
| 2026-04-14 15:58 | 50.04556 | 8.58028 | 362 ft | 7 kts | 204° |
| 2026-04-14 15:58 | 50.04529 | 8.57960 | 364 ft | 10 kts | 249° |
| 2026-04-14 15:58 | 50.04497 | 8.57830 | 366 ft | 16 kts | 250° |
| 2026-04-14 15:58 | 50.04453 | 8.57642 | 366 ft | 20 kts | 250° |
| 2026-04-14 15:59 | 50.04401 | 8.57428 | 362 ft | 22 kts | 249° |
| 2026-04-14 15:59 | 50.04347 | 8.57197 | 363 ft | 23 kts | 249° |
| 2026-04-14 15:59 | 50.04289 | 8.56956 | 362 ft | 25 kts | 249° |
| 2026-04-14 15:59 | 50.04228 | 8.56700 | 357 ft | 26 kts | 249° |
| 2026-04-14 16:00 | 50.04162 | 8.56423 | 356 ft | 28 kts | 250° |
| 2026-04-14 16:00 | 50.04103 | 8.56177 | 359 ft | 21 kts | 249° |
| 2026-04-14 16:00 | 50.04053 | 8.55966 | 355 ft | 18 kts | 250° |
| 2026-04-14 16:00 | 50.04012 | 8.55796 | 351 ft | 17 kts | 250° |
| 2026-04-14 16:01 | 50.03982 | 8.55671 | 349 ft | 0 kts | 249° |
| 2026-04-14 16:02 | 50.03981 | 8.55666 | 355 ft | 2 kts | 249° |
| 2026-04-14 16:02 | 50.03969 | 8.55620 | 349 ft | 9 kts | 249° |
| 2026-04-14 16:02 | 50.03942 | 8.55505 | 350 ft | 12 kts | 250° |
| 2026-04-14 16:02 | 50.03913 | 8.55383 | 349 ft | 13 kts | 250° |
| 2026-04-14 16:03 | 50.03880 | 8.55245 | 352 ft | 14 kts | 250° |
| 2026-04-14 16:03 | 50.03845 | 8.55096 | 351 ft | 15 kts | 249° |
| 2026-04-14 16:03 | 50.03805 | 8.54933 | 352 ft | 17 kts | 249° |
| 2026-04-14 16:03 | 50.03762 | 8.54753 | 353 ft | 18 kts | 249° |
| 2026-04-14 16:04 | 50.03715 | 8.54554 | 347 ft | 21 kts | 250° |
| 2026-04-14 16:04 | 50.03662 | 8.54331 | 346 ft | 23 kts | 250° |
| 2026-04-14 16:04 | 50.03606 | 8.54097 | 350 ft | 24 kts | 249° |
| 2026-04-14 16:04 | 50.03547 | 8.53850 | 336 ft | 25 kts | 249° |
| 2026-04-14 16:05 | 50.03485 | 8.53590 | 337 ft | 26 kts | 250° |
| 2026-04-14 16:05 | 50.03420 | 8.53319 | 337 ft | 27 kts | 249° |
| 2026-04-14 16:05 | 50.03367 | 8.53099 | 335 ft | 13 kts | 249° |
| 2026-04-14 16:05 | 50.03346 | 8.53011 | 333 ft | 9 kts | 249° |
| 2026-04-14 16:06 | 50.03323 | 8.52914 | 333 ft | 10 kts | 249° |
| 2026-04-14 16:06 | 50.03298 | 8.52812 | 333 ft | 9 kts | 249° |
| 2026-04-14 16:06 | 50.03285 | 8.52758 | 333 ft | 0 kts | 249° |
| 2026-04-14 16:07 | 50.03282 | 8.52743 | 333 ft | 6 kts | 249° |
| 2026-04-14 16:07 | 50.03258 | 8.52657 | 332 ft | 9 kts | 239° |
| 2026-04-14 16:08 | 50.03199 | 8.52601 | 332 ft | 14 kts | 194° |
| 2026-04-14 16:08 | 50.02962 | 8.52599 | 336 ft | 71 kts | 180° |
| 2026-04-14 16:08 | 50.02201 | 8.52606 | 333 ft | 144 kts | 179° |
| 2026-04-14 16:08 | 50.01076 | 8.52602 | 738 ft | 165 kts | 181° |
| 2026-04-14 16:09 | 49.99913 | 8.52610 | 1447 ft | 170 kts | 177° |
| 2026-04-14 16:09 | 49.98713 | 8.52670 | 2134 ft | 177 kts | 176° |
| 2026-04-14 16:09 | 49.97437 | 8.52758 | 2732 ft | 189 kts | 176° |
| 2026-04-14 16:09 | 49.96084 | 8.52874 | 3325 ft | 202 kts | 175° |
| 2026-04-14 16:10 | 49.94603 | 8.53000 | 3781 ft | 225 kts | 176° |
| 2026-04-14 16:10 | 49.92969 | 8.53127 | 4466 ft | 240 kts | 176° |
| 2026-04-14 16:10 | 49.91291 | 8.53252 | 5475 ft | 244 kts | 176° |
| 2026-04-14 16:10 | 49.89585 | 8.53374 | 6463 ft | 248 kts | 176° |
| 2026-04-14 16:11 | 49.87852 | 8.53494 | 7438 ft | 250 kts | 176° |
| 2026-04-14 16:11 | 49.86109 | 8.53611 | 8446 ft | 252 kts | 176° |
| 2026-04-14 16:11 | 49.84360 | 8.53728 | 9542 ft | 251 kts | 178° |
| 2026-04-14 16:11 | 49.82616 | 8.53845 | 10582 ft | 251 kts | 179° |
| 2026-04-14 16:12 | 49.80861 | 8.53967 | 11484 ft | 254 kts | 179° |
| 2026-04-14 16:12 | 49.79079 | 8.54086 | 12348 ft | 259 kts | 179° |
| 2026-04-14 16:12 | 49.77257 | 8.54040 | 13095 ft | 269 kts | 186° |
| 2026-04-14 16:12 | 49.75309 | 8.53783 | 13469 ft | 293 kts | 186° |
| 2026-04-14 16:13 | 49.73195 | 8.53497 | 13795 ft | 317 kts | 187° |
| 2026-04-14 16:13 | 49.70917 | 8.53187 | 14059 ft | 341 kts | 186° |
| 2026-04-14 16:13 | 49.68497 | 8.52859 | 14486 ft | 355 kts | 186° |
| 2026-04-14 16:13 | 49.66013 | 8.52529 | 15145 ft | 361 kts | 186° |
| 2026-04-14 16:14 | 49.63522 | 8.52201 | 15845 ft | 366 kts | 186° |
| 2026-04-14 16:14 | 49.60940 | 8.51857 | 16563 ft | 370 kts | 186° |
| 2026-04-14 16:14 | 49.58385 | 8.51519 | 17040 ft | 375 kts | 186° |
| 2026-04-14 16:14 | 49.55778 | 8.51178 | 17171 ft | 380 kts | 186° |
| 2026-04-14 16:15 | 49.53089 | 8.50825 | 17194 ft | 393 kts | 185° |
| 2026-04-14 16:15 | 49.50355 | 8.50467 | 17193 ft | 395 kts | 186° |
| 2026-04-14 16:15 | 49.47611 | 8.50107 | 17193 ft | 396 kts | 186° |
| 2026-04-14 16:15 | 49.44862 | 8.49747 | 17193 ft | 396 kts | 185° |
| 2026-04-14 16:16 | 49.42118 | 8.49388 | 17192 ft | 396 kts | 186° |
| 2026-04-14 16:16 | 49.39375 | 8.49033 | 17193 ft | 395 kts | 186° |
| 2026-04-14 16:16 | 49.36637 | 8.48679 | 17194 ft | 395 kts | 186° |
| 2026-04-14 16:16 | 49.33899 | 8.48327 | 17194 ft | 395 kts | 185° |
| 2026-04-14 16:17 | 49.31147 | 8.48332 | 17195 ft | 396 kts | 176° |
| 2026-04-14 16:17 | 49.28432 | 8.49058 | 17195 ft | 397 kts | 165° |
| 2026-04-14 16:17 | 49.25842 | 8.50513 | 17193 ft | 398 kts | 155° |
| 2026-04-14 16:17 | 49.23442 | 8.52632 | 17192 ft | 399 kts | 148° |
| 2026-04-14 16:18 | 49.21097 | 8.54906 | 17193 ft | 399 kts | 148° |
| 2026-04-14 16:18 | 49.18746 | 8.57154 | 17197 ft | 398 kts | 150° |
| 2026-04-14 16:18 | 49.16237 | 8.58909 | 17202 ft | 396 kts | 162° |
| 2026-04-14 16:18 | 49.13569 | 8.59901 | 17206 ft | 394 kts | 173° |
| 2026-04-14 16:19 | 49.10843 | 8.60114 | 17211 ft | 393 kts | 184° |
| 2026-04-14 16:19 | 49.08124 | 8.59737 | 17210 ft | 392 kts | 186° |
| 2026-04-14 16:19 | 49.05408 | 8.59322 | 17212 ft | 392 kts | 186° |
| 2026-04-14 16:19 | 49.02687 | 8.58911 | 17214 ft | 392 kts | 186° |
| 2026-04-14 16:20 | 48.99969 | 8.58530 | 17211 ft | 393 kts | 184° |
| 2026-04-14 16:20 | 48.97236 | 8.58652 | 17212 ft | 394 kts | 176° |
| 2026-04-14 16:20 | 48.94508 | 8.58994 | 17215 ft | 394 kts | 176° |
| 2026-04-14 16:20 | 48.91780 | 8.59324 | 17220 ft | 394 kts | 176° |
| 2026-04-14 16:21 | 48.89083 | 8.60041 | 17219 ft | 395 kts | 162° |
| 2026-04-14 16:21 | 48.86665 | 8.62019 | 17220 ft | 398 kts | 142° |
| 2026-04-14 16:21 | 48.84832 | 8.65142 | 17213 ft | 393 kts | 122° |
| 2026-04-14 16:21 | 48.83827 | 8.68896 | 17208 ft | 383 kts | 102° |
| 2026-04-14 16:22 | 48.83682 | 8.72908 | 17208 ft | 381 kts | 83° |
| 2026-04-14 16:22 | 48.84147 | 8.76861 | 17207 ft | 381 kts | 79° |
| 2026-04-14 16:22 | 48.84654 | 8.80802 | 17199 ft | 381 kts | 79° |
| 2026-04-14 16:22 | 48.85162 | 8.84750 | 17198 ft | 380 kts | 79° |
| 2026-04-14 16:23 | 48.85667 | 8.88691 | 17198 ft | 380 kts | 79° |
| 2026-04-14 16:23 | 48.86168 | 8.92629 | 17198 ft | 380 kts | 79° |
| 2026-04-14 16:23 | 48.86659 | 8.96520 | 17195 ft | 380 kts | 79° |
| 2026-04-14 16:23 | 48.87153 | 9.00457 | 17192 ft | 379 kts | 79° |
| 2026-04-14 16:24 | 48.87646 | 9.04401 | 17192 ft | 379 kts | 79° |
| 2026-04-14 16:24 | 48.88134 | 9.08333 | 17192 ft | 379 kts | 79° |
| 2026-04-14 16:24 | 48.88614 | 9.12219 | 17142 ft | 365 kts | 79° |
| 2026-04-14 16:24 | 48.89071 | 9.15912 | 17014 ft | 347 kts | 79° |
| 2026-04-14 16:25 | 48.89507 | 9.19431 | 16837 ft | 331 kts | 79° |
| 2026-04-14 16:25 | 48.89928 | 9.22839 | 16432 ft | 325 kts | 79° |
| 2026-04-14 16:25 | 48.90342 | 9.26199 | 16026 ft | 320 kts | 79° |
| 2026-04-14 16:25 | 48.90654 | 9.29514 | 15580 ft | 316 kts | 90° |
| 2026-04-14 16:26 | 48.90233 | 9.32755 | 15092 ft | 312 kts | 114° |
| 2026-04-14 16:26 | 48.89085 | 9.35538 | 14302 ft | 316 kts | 127° |
| 2026-04-14 16:26 | 48.87689 | 9.38217 | 13104 ft | 330 kts | 129° |
| 2026-04-14 16:26 | 48.86243 | 9.40944 | 12429 ft | 325 kts | 129° |
| 2026-04-14 16:27 | 48.84851 | 9.43566 | 11714 ft | 320 kts | 129° |
| 2026-04-14 16:27 | 48.83444 | 9.46224 | 10716 ft | 325 kts | 129° |
| 2026-04-14 16:27 | 48.82029 | 9.48917 | 9710 ft | 327 kts | 129° |
| 2026-04-14 16:27 | 48.80873 | 9.51864 | 8643 ft | 327 kts | 109° |
| 2026-04-14 16:28 | 48.80487 | 9.55241 | 7631 ft | 325 kts | 94° |
| 2026-04-14 16:28 | 48.80012 | 9.58556 | 6717 ft | 322 kts | 115° |
| 2026-04-14 16:28 | 48.78678 | 9.61168 | 6214 ft | 308 kts | 139° |
| 2026-04-14 16:28 | 48.76800 | 9.62422 | 6112 ft | 289 kts | 173° |
| 2026-04-14 16:29 | 48.74893 | 9.61946 | 6087 ft | 274 kts | 206° |
| 2026-04-14 16:29 | 48.73555 | 9.60040 | 5886 ft | 264 kts | 243° |
| 2026-04-14 16:29 | 48.73208 | 9.57391 | 5575 ft | 256 kts | 279° |
| 2026-04-14 16:29 | 48.73603 | 9.54790 | 5263 ft | 252 kts | 286° |
| 2026-04-14 16:30 | 48.74030 | 9.52230 | 4970 ft | 249 kts | 284° |
| 2026-04-14 16:30 | 48.74100 | 9.49631 | 4648 ft | 248 kts | 263° |
| 2026-04-14 16:30 | 48.73699 | 9.47089 | 4326 ft | 248 kts | 255° |
| 2026-04-14 16:30 | 48.73210 | 9.44601 | 3984 ft | 244 kts | 255° |
| 2026-04-14 16:31 | 48.72747 | 9.42179 | 3650 ft | 232 kts | 256° |
| 2026-04-14 16:31 | 48.72320 | 9.39904 | 3364 ft | 218 kts | 256° |
| 2026-04-14 16:31 | 48.71920 | 9.37766 | 3050 ft | 210 kts | 256° |
| 2026-04-14 16:31 | 48.71523 | 9.35664 | 2768 ft | 197 kts | 256° |
| 2026-04-14 16:32 | 48.71164 | 9.33795 | 2578 ft | 178 kts | 256° |
| 2026-04-14 16:32 | 48.70851 | 9.32117 | 2402 ft | 155 kts | 257° |
| 2026-04-14 16:32 | 48.70572 | 9.30601 | 2104 ft | 145 kts | 256° |
| 2026-04-14 16:32 | 48.70293 | 9.29182 | 1846 ft | 137 kts | 255° |
| 2026-04-14 16:33 | 48.70040 | 9.27815 | 1671 ft | 133 kts | 256° |
| 2026-04-14 16:33 | 48.69875 | 9.26923 | 1562 ft | 128 kts | 253° |
| 2026-04-14 16:33 | 48.69554 | 9.25209 | 1365 ft | 128 kts | 257° |
| 2026-04-14 16:33 | 48.69311 | 9.23915 | 1221 ft | 127 kts | 257° |
| 2026-04-14 16:34 | 48.69104 | 9.22808 | 1221 ft | 88 kts | 254° |
| 2026-04-14 16:34 | 48.68962 | 9.22052 | 1247 ft | 64 kts | 254° |
| 2026-04-14 16:34 | 48.68883 | 9.21633 | 1254 ft | 58 kts | 254° |
| 2026-04-14 16:34 | 48.68816 | 9.21125 | 1261 ft | 38 kts | 275° |
| 2026-04-14 16:35 | 48.68868 | 9.20793 | 1272 ft | 29 kts | 284° |
| 2026-04-14 16:35 | 48.68843 | 9.20509 | 1281 ft | 27 kts | 253° |
| 2026-04-14 16:35 | 48.68793 | 9.20247 | 1286 ft | 26 kts | 253° |
| 2026-04-14 16:35 | 48.68772 | 9.19989 | 1293 ft | 24 kts | 299° |
| 2026-04-14 16:36 | 48.68883 | 9.19848 | 1303 ft | 18 kts | 290° |
| 2026-04-14 16:36 | 48.68863 | 9.19675 | 1308 ft | 15 kts | 254° |
| 2026-04-14 16:36 | 48.68838 | 9.19541 | 1311 ft | 11 kts | 255° |
| 2026-04-14 16:36 | 48.68821 | 9.19448 | 1312 ft | 8 kts | 254° |
| 2026-04-14 16:37 | 48.68819 | 9.19391 | 1314 ft | 4 kts | 298° |
| 2026-04-14 16:37 | 48.68839 | 9.19378 | 1314 ft | 3 kts | 343° |
| 2026-04-14 16:37 | 48.68855 | 9.19371 | 1315 ft | 2 kts | 344° |
| 2026-04-14 16:37 | 48.68875 | 9.19363 | 1315 ft | 4 kts | 344° |
| 2026-04-14 16:38 | 48.68885 | 9.19358 | 1315 ft | 0 kts | 344° |